createdAt,value
2022-09-30T00:01:47.215Z,1.40
2022-09-30T00:04:17.821Z,1.70
2022-09-30T00:06:47.182Z,1.47
2022-09-30T00:09:16.379Z,1.35
2022-09-30T00:11:46.391Z,1.30
2022-09-30T00:14:17.851Z,1.40
2022-09-30T00:16:47.978Z,1.20
2022-09-30T00:19:16.958Z,1.50
2022-09-30T00:21:45.727Z,1.30
2022-09-30T00:24:14.283Z,1.42
2022-09-30T00:26:43.097Z,1.98
2022-09-30T00:29:12.702Z,1.48
2022-09-30T00:31:41.355Z,1.30
2022-09-30T00:34:12.135Z,1.20
2022-09-30T00:36:44.576Z,1.50
2022-09-30T00:39:16.459Z,1.75
2022-09-30T00:41:47.322Z,1.20
2022-09-30T00:44:55.543Z,3.10
2022-09-30T00:47:36.702Z,1.50
2022-09-30T00:50:18.076Z,1.40
2022-09-30T00:52:50.314Z,1.57
2022-09-30T00:55:30.768Z,1.30
2022-09-30T00:58:02.863Z,1.20
2022-09-30T01:00:31.452Z,1.52
2022-09-30T01:03:00.167Z,1.83
2022-09-30T01:05:33.469Z,1.60
2022-09-30T01:08:06.346Z,1.50
2022-09-30T01:10:34.944Z,1.33
2022-09-30T01:13:03.764Z,1.40
2022-09-30T01:15:47.401Z,1.43
2022-09-30T01:18:25.635Z,1.52
2022-09-30T01:21:29.393Z,1.50
2022-09-30T01:24:17.358Z,1.27
2022-09-30T01:27:15.614Z,1.33
2022-09-30T01:30:07.455Z,1.40
2022-09-30T01:33:01.513Z,1.70
2022-09-30T01:35:40.683Z,1.40
2022-09-30T01:38:18.816Z,1.50
2022-09-30T01:40:56.756Z,1.20
2022-09-30T01:43:32.181Z,1.65
2022-09-30T01:46:07.917Z,1.60
2022-09-30T01:48:47.416Z,1.58
2022-09-30T01:51:24.308Z,1.45
2022-09-30T01:54:00.558Z,1.40
2022-09-30T01:56:36.564Z,1.50
2022-09-30T01:59:09.887Z,1.50
2022-09-30T02:01:44.027Z,1.40
2022-09-30T02:04:20.056Z,1.60
2022-09-30T02:06:52.491Z,1.70
2022-09-30T02:09:27.716Z,1.40
2022-09-30T02:11:57.393Z,1.60
2022-09-30T02:14:29.070Z,1.50
2022-09-30T02:17:04.730Z,1.50
2022-09-30T02:19:40.749Z,1.33
2022-09-30T02:22:14.903Z,1.40
2022-09-30T02:24:46.066Z,1.55
2022-09-30T02:27:21.620Z,2.47
2022-09-30T02:29:54.562Z,1.55
2022-09-30T02:32:28.818Z,1.58
2022-09-30T02:35:03.643Z,1.80
2022-09-30T02:37:36.855Z,1.60
2022-09-30T02:40:11.407Z,1.50
2022-09-30T02:42:42.026Z,1.70
2022-09-30T02:45:12.885Z,1.77
2022-09-30T02:47:54.865Z,1.60
2022-09-30T02:50:32.895Z,1.40
2022-09-30T02:53:16.210Z,1.80
2022-09-30T02:56:06.720Z,1.60
2022-09-30T02:58:39.657Z,1.63
2022-09-30T03:01:10.442Z,1.60
2022-09-30T03:03:43.095Z,1.80
2022-09-30T03:06:13.697Z,1.65
2022-09-30T03:08:43.236Z,1.63
2022-09-30T03:11:17.731Z,1.80
2022-09-30T03:14:24.109Z,1.80
2022-09-30T03:17:28.293Z,2.60
2022-09-30T03:20:23.694Z,1.85
2022-09-30T03:23:24.152Z,1.58
2022-09-30T03:26:01.879Z,1.40
2022-09-30T03:28:34.410Z,1.70
2022-09-30T03:31:09.640Z,1.50
2022-09-30T03:33:47.568Z,1.40
2022-09-30T03:36:24.006Z,1.73
2022-09-30T03:39:02.700Z,1.60
2022-09-30T03:41:39.814Z,1.70
2022-09-30T03:44:15.996Z,1.70
2022-09-30T03:46:50.247Z,1.60
2022-09-30T03:49:26.774Z,1.90
2022-09-30T03:51:58.692Z,1.65
2022-09-30T03:54:29.476Z,1.60
2022-09-30T03:56:57.961Z,1.73
2022-09-30T03:59:28.502Z,2.30
2022-09-30T04:01:58.047Z,1.63
2022-09-30T04:04:26.674Z,1.55
2022-09-30T04:06:55.185Z,1.65
2022-09-30T04:09:24.121Z,1.63
2022-09-30T04:11:54.072Z,2.65
2022-09-30T04:14:22.526Z,2.03
2022-09-30T04:16:53.944Z,1.80
2022-09-30T04:19:22.833Z,1.70
2022-09-30T04:21:53.473Z,1.50
2022-09-30T04:24:22.004Z,1.67
2022-09-30T04:26:50.538Z,1.53
2022-09-30T04:29:20.380Z,1.90
2022-09-30T04:31:48.911Z,1.40
2022-09-30T04:34:17.409Z,2.03
2022-09-30T04:36:46.588Z,1.70
2022-09-30T04:39:15.134Z,2.00
2022-09-30T04:41:43.720Z,1.85
2022-09-30T04:44:13.521Z,1.70
2022-09-30T04:46:43.660Z,1.50
2022-09-30T04:49:12.118Z,1.70
2022-09-30T04:51:43.943Z,1.70
2022-09-30T04:54:12.420Z,1.60
2022-09-30T04:56:40.931Z,1.80
2022-09-30T04:59:09.382Z,3.20
2022-09-30T05:01:39.326Z,1.60
2022-09-30T05:04:10.468Z,1.65
2022-09-30T05:06:39.844Z,1.65
2022-09-30T05:09:08.579Z,1.70
2022-09-30T05:11:40.803Z,1.77
2022-09-30T05:14:09.924Z,1.50
2022-09-30T05:16:38.579Z,1.60
2022-09-30T05:19:08.520Z,1.40
2022-09-30T05:21:37.070Z,1.58
2022-09-30T05:24:05.804Z,1.70
2022-09-30T05:26:34.291Z,1.60
2022-09-30T05:29:03.329Z,1.40
2022-09-30T05:31:31.924Z,1.63
2022-09-30T05:34:00.420Z,1.75
2022-09-30T05:36:30.265Z,1.60
2022-09-30T05:38:58.729Z,1.80
2022-09-30T05:41:27.420Z,1.60
2022-09-30T05:43:55.851Z,1.35
2022-09-30T05:46:24.412Z,1.60
2022-09-30T05:48:55.369Z,1.55
2022-09-30T05:51:24.159Z,1.60
2022-09-30T05:53:54.009Z,1.60
2022-09-30T05:56:22.530Z,1.73
2022-09-30T05:58:51.049Z,1.42
2022-09-30T06:01:19.591Z,1.52
2022-09-30T06:03:48.370Z,1.60
2022-09-30T06:06:17.340Z,1.40
2022-09-30T06:08:46.342Z,1.60
2022-09-30T06:11:19.427Z,2.10
2022-09-30T06:13:49.214Z,2.20
2022-09-30T06:16:18.665Z,1.70
2022-09-30T06:18:47.451Z,1.63
2022-09-30T06:21:18.135Z,2.30
2022-09-30T06:23:46.645Z,2.08
2022-09-30T06:26:16.909Z,2.72
2022-09-30T06:28:45.435Z,2.05
2022-09-30T06:31:14.718Z,1.70
2022-09-30T06:33:43.434Z,1.53
2022-09-30T06:36:12.026Z,2.60
2022-09-30T06:38:40.590Z,4.60
2022-09-30T06:41:09.817Z,2.58
2022-09-30T06:43:51.182Z,3.13
2022-09-30T06:46:31.277Z,2.05
2022-09-30T06:49:12.637Z,2.08
2022-09-30T06:51:42.429Z,2.33
2022-09-30T06:54:11.432Z,2.83
2022-09-30T06:56:39.948Z,2.22
2022-09-30T06:59:10.718Z,2.60
2022-09-30T07:01:39.216Z,2.15
2022-09-30T07:04:10.030Z,4.65
2022-09-30T07:06:39.069Z,3.67
2022-09-30T07:09:08.355Z,3.50
2022-09-30T07:11:37.706Z,3.43
2022-09-30T07:14:06.393Z,4.28
2022-09-30T07:16:36.288Z,3.75
2022-09-30T07:19:06.841Z,3.95
2022-09-30T07:21:35.449Z,4.38
2022-09-30T07:24:04.099Z,3.88
2022-09-30T07:26:32.767Z,2.30
2022-09-30T07:29:01.290Z,2.60
2022-09-30T07:31:35.114Z,3.03
2022-09-30T07:34:07.866Z,4.35
2022-09-30T07:36:37.965Z,6.00
2022-09-30T07:39:09.651Z,2.75
2022-09-30T07:41:40.283Z,4.30
2022-09-30T07:44:13.218Z,3.40
2022-09-30T07:46:42.843Z,3.25
2022-09-30T07:49:16.086Z,4.73
2022-09-30T07:51:45.598Z,6.10
2022-09-30T07:54:16.948Z,7.00
2022-09-30T07:57:08.790Z,1.90
2022-09-30T07:59:38.706Z,2.95
2022-09-30T08:02:09.188Z,3.87
2022-09-30T08:04:43.521Z,7.25
2022-09-30T08:07:13.646Z,2.67
2022-09-30T08:09:42.262Z,3.55
2022-09-30T08:12:10.863Z,3.70
2022-09-30T08:14:39.373Z,8.05
2022-09-30T08:17:07.842Z,5.03
2022-09-30T08:19:36.520Z,4.35
2022-09-30T08:22:06.500Z,5.85
2022-09-30T08:24:35.191Z,4.55
2022-09-30T08:27:03.837Z,3.95
2022-09-30T08:32:20.942Z,5.32
2022-09-30T08:34:49.440Z,3.78
2022-09-30T08:37:19.445Z,3.90
2022-09-30T08:39:48.575Z,3.28
2022-09-30T08:42:37.258Z,3.85
2022-09-30T08:45:20.006Z,4.43
2022-09-30T08:47:58.239Z,5.72
2022-09-30T08:50:35.738Z,5.88
2022-09-30T08:53:11.949Z,3.67
2022-09-30T08:55:43.476Z,3.15
2022-09-30T08:58:22.710Z,4.22
2022-09-30T09:00:56.032Z,4.90
2022-09-30T09:03:30.259Z,6.72
2022-09-30T09:06:12.682Z,5.25
2022-09-30T09:09:12.381Z,4.87
2022-09-30T09:12:00.358Z,5.22
2022-09-30T09:14:40.938Z,5.68
2022-09-30T09:17:24.543Z,6.18
2022-09-30T09:20:00.815Z,2.38
2022-09-30T09:22:31.470Z,4.15
2022-09-30T09:25:02.318Z,7.15
2022-09-30T09:27:46.331Z,5.95
2022-09-30T09:30:18.388Z,5.25
2022-09-30T09:32:53.297Z,4.97
2022-09-30T09:35:35.028Z,6.50
2022-09-30T09:38:26.552Z,6.15
2022-09-30T09:41:16.090Z,5.90
2022-09-30T09:43:58.433Z,4.80
2022-09-30T09:46:30.655Z,6.13
2022-09-30T09:49:33.911Z,6.10
2022-09-30T09:52:23.859Z,4.00
2022-09-30T09:54:56.704Z,5.50
2022-09-30T09:57:32.261Z,6.03
2022-09-30T10:00:27.810Z,5.75
2022-09-30T10:03:04.989Z,5.18
2022-09-30T10:05:39.701Z,6.70
2022-09-30T10:08:15.098Z,6.47
2022-09-30T10:10:49.371Z,4.17
2022-09-30T10:13:21.501Z,5.28
2022-09-30T10:15:51.730Z,4.57
2022-09-30T10:18:26.004Z,4.68
2022-09-30T10:20:58.715Z,4.80
2022-09-30T10:23:41.092Z,5.40
2022-09-30T10:26:19.259Z,4.75
2022-09-30T10:28:51.496Z,4.45
2022-09-30T10:31:25.828Z,5.22
2022-09-30T10:34:00.807Z,5.00
2022-09-30T10:36:34.728Z,4.90
2022-09-30T10:39:07.386Z,4.70
2022-09-30T10:41:38.578Z,4.15
2022-09-30T10:44:15.135Z,4.00
2022-09-30T10:46:45.939Z,4.13
2022-09-30T10:49:29.380Z,5.13
2022-09-30T10:51:58.284Z,4.47
2022-09-30T10:54:47.660Z,3.55
2022-09-30T10:57:17.937Z,4.23
2022-09-30T10:59:49.884Z,4.45
2022-09-30T11:02:26.184Z,3.65
2022-09-30T11:05:03.658Z,4.13
2022-09-30T11:07:36.028Z,6.30
2022-09-30T11:10:09.949Z,3.00
2022-09-30T11:12:45.527Z,4.13
2022-09-30T11:15:22.804Z,2.08
2022-09-30T11:17:58.581Z,2.10
2022-09-30T11:20:30.933Z,2.63
2022-09-30T11:23:05.270Z,3.22
2022-09-30T11:25:44.471Z,4.30
2022-09-30T11:28:37.009Z,2.95
2022-09-30T11:31:18.313Z,3.22
2022-09-30T11:34:02.074Z,5.05
2022-09-30T11:36:42.859Z,2.97
2022-09-30T11:39:37.638Z,3.30
2022-09-30T11:42:16.838Z,2.95
2022-09-30T11:44:46.327Z,2.90
2022-09-30T11:47:48.948Z,3.28
2022-09-30T11:50:52.436Z,4.67
2022-09-30T11:53:33.404Z,4.60
2022-09-30T11:56:16.394Z,3.40
2022-09-30T11:58:50.458Z,3.40
2022-09-30T12:01:26.476Z,3.60
2022-09-30T12:04:08.463Z,2.27
2022-09-30T12:06:43.477Z,3.57
2022-09-30T12:09:19.400Z,3.13
2022-09-30T12:11:54.545Z,2.58
2022-09-30T12:14:29.798Z,2.65
2022-09-30T12:17:01.402Z,3.08
2022-09-30T12:19:37.310Z,2.10
2022-09-30T12:22:13.038Z,3.67
2022-09-30T12:24:43.075Z,3.65
2022-09-30T12:27:18.926Z,3.65
2022-09-30T12:30:14.324Z,2.85
2022-09-30T12:33:23.688Z,3.70
2022-09-30T12:36:27.577Z,2.28
2022-09-30T12:39:30.230Z,3.08
2022-09-30T12:42:16.673Z,2.45
2022-09-30T12:45:22.826Z,2.15
2022-09-30T12:47:54.802Z,1.83
2022-09-30T12:50:28.538Z,1.33
2022-09-30T12:53:00.149Z,1.50
2022-09-30T12:55:32.281Z,2.50
2022-09-30T12:58:02.333Z,1.60
2022-09-30T13:00:34.709Z,1.00
2022-09-30T13:03:08.436Z,1.52
2022-09-30T13:05:56.280Z,3.78
2022-09-30T13:08:45.366Z,1.60
2022-09-30T13:11:38.478Z,2.60
2022-09-30T13:14:33.718Z,1.80
2022-09-30T13:17:28.935Z,1.83
2022-09-30T13:19:58.676Z,1.45
2022-09-30T13:22:44.219Z,1.30
2022-09-30T13:25:16.635Z,1.10
2022-09-30T13:27:47.634Z,1.75
2022-09-30T13:30:38.383Z,1.88
2022-09-30T13:33:27.139Z,1.87
2022-09-30T13:36:00.564Z,1.60
2022-09-30T13:38:41.243Z,3.50
2022-09-30T13:41:22.621Z,1.70
2022-09-30T13:44:03.546Z,2.00
2022-09-30T13:46:36.821Z,1.90
2022-09-30T13:49:15.138Z,1.92
2022-09-30T13:51:45.729Z,1.90
2022-09-30T13:54:23.439Z,2.67
2022-09-30T13:56:54.126Z,1.70
2022-09-30T13:59:33.568Z,2.13
2022-09-30T14:02:33.891Z,1.70
2022-09-30T14:05:36.242Z,2.35
2022-09-30T14:08:34.797Z,1.77
2022-09-30T14:11:21.033Z,2.40
2022-09-30T14:14:03.209Z,1.95
2022-09-30T14:16:55.570Z,2.58
2022-09-30T14:19:46.267Z,1.67
2022-09-30T14:22:16.705Z,1.80
2022-09-30T14:24:45.324Z,2.20
2022-09-30T14:27:40.441Z,2.67
2022-09-30T14:30:14.898Z,2.40
2022-09-30T14:32:47.619Z,1.90
2022-09-30T14:35:19.281Z,1.93
2022-09-30T14:37:50.960Z,1.90
2022-09-30T14:40:25.080Z,1.63
2022-09-30T14:42:55.237Z,1.70
2022-09-30T14:45:28.893Z,1.57
2022-09-30T14:48:02.355Z,1.98
2022-09-30T14:50:37.841Z,1.60
2022-09-30T14:53:06.764Z,1.77
2022-09-30T14:55:38.012Z,1.60
2022-09-30T14:58:28.670Z,1.63
2022-09-30T15:01:06.410Z,1.67
2022-09-30T15:03:39.464Z,2.95
2022-09-30T15:06:21.058Z,2.15
2022-09-30T15:08:52.295Z,1.70
2022-09-30T15:11:22.350Z,1.40
2022-09-30T15:14:03.659Z,1.33
2022-09-30T15:16:35.106Z,1.60
2022-09-30T15:19:03.930Z,2.80
2022-09-30T15:21:33.507Z,1.60
2022-09-30T15:24:02.872Z,1.45
2022-09-30T15:26:34.114Z,2.35
2022-09-30T15:29:05.557Z,1.08
2022-09-30T15:31:36.266Z,1.10
2022-09-30T15:34:08.461Z,1.30
2022-09-30T15:36:38.655Z,1.10
2022-09-30T15:39:18.200Z,0.70
2022-09-30T15:41:48.562Z,2.05
2022-09-30T15:44:20.541Z,0.90
2022-09-30T15:47:07.168Z,0.70
2022-09-30T15:49:48.828Z,0.63
2022-09-30T15:52:36.308Z,1.17
2022-09-30T15:55:43.770Z,0.90
2022-09-30T15:58:33.681Z,1.10
2022-09-30T16:01:16.739Z,1.10
2022-09-30T16:03:55.733Z,0.70
2022-09-30T16:06:32.452Z,1.08
2022-09-30T16:09:04.245Z,0.47
2022-09-30T16:11:36.752Z,0.80
2022-09-30T16:14:08.981Z,0.57
2022-09-30T16:16:40.090Z,0.85
2022-09-30T16:19:19.079Z,1.50
2022-09-30T16:21:50.867Z,0.90
2022-09-30T16:24:50.097Z,0.90
2022-09-30T16:27:36.042Z,0.60
2022-09-30T16:30:06.510Z,0.90
2022-09-30T16:32:39.869Z,0.70
2022-09-30T16:35:18.145Z,0.65
2022-09-30T16:37:47.510Z,0.85
2022-09-30T16:40:21.966Z,1.60
2022-09-30T16:42:50.874Z,0.90
2022-09-30T16:45:19.988Z,1.00
2022-09-30T16:47:49.646Z,1.20
2022-09-30T16:50:27.324Z,1.20
2022-09-30T16:52:56.105Z,1.00
2022-09-30T16:55:25.201Z,0.73
2022-09-30T16:57:53.621Z,1.60
2022-09-30T17:00:22.024Z,1.70
2022-09-30T17:02:50.821Z,0.80
2022-09-30T17:05:23.678Z,0.70
2022-09-30T17:07:54.651Z,0.90
2022-09-30T17:10:25.446Z,0.52
2022-09-30T17:12:54.239Z,0.82
2022-09-30T17:15:23.554Z,0.50
2022-09-30T17:17:52.797Z,0.50
2022-09-30T17:20:23.372Z,0.57
2022-09-30T17:22:51.969Z,0.60
2022-09-30T17:25:20.637Z,1.30
2022-09-30T17:27:50.180Z,0.50
2022-09-30T17:30:19.511Z,0.90
2022-09-30T17:32:48.103Z,0.60
2022-09-30T17:35:16.793Z,0.60
2022-09-30T17:37:47.789Z,0.60
2022-09-30T17:40:34.072Z,0.60
2022-09-30T17:43:08.518Z,0.90
2022-09-30T17:45:38.122Z,0.43
2022-09-30T17:48:07.788Z,0.47
2022-09-30T17:50:36.614Z,0.60
2022-09-30T17:53:07.650Z,0.70
2022-09-30T17:55:36.379Z,0.60
2022-09-30T17:58:04.575Z,0.70
2022-09-30T18:00:33.594Z,0.68
2022-09-30T18:03:02.865Z,0.60
2022-09-30T18:05:31.931Z,0.80
2022-09-30T18:08:00.552Z,0.70
2022-09-30T18:10:30.221Z,0.68
2022-09-30T18:12:59.675Z,0.70
2022-09-30T18:15:28.196Z,0.80
2022-09-30T18:17:56.492Z,0.90
2022-09-30T18:20:25.605Z,0.90
2022-09-30T18:22:54.133Z,0.93
2022-09-30T18:25:23.019Z,1.00
2022-09-30T18:27:56.239Z,0.60
2022-09-30T18:30:25.483Z,1.10
2022-09-30T18:32:56.206Z,0.80
2022-09-30T18:35:25.471Z,0.90
2022-09-30T18:37:54.609Z,1.00
2022-09-30T18:40:25.942Z,0.70
2022-09-30T18:42:58.634Z,0.90
2022-09-30T18:45:27.199Z,0.90
2022-09-30T18:47:57.263Z,0.95
2022-09-30T18:50:26.718Z,0.95
2022-09-30T18:52:55.421Z,1.50
2022-09-30T18:55:24.297Z,1.02
2022-09-30T18:57:57.225Z,1.40
2022-09-30T19:00:27.078Z,1.23
2022-09-30T19:02:55.240Z,1.15
2022-09-30T19:05:23.544Z,1.10
2022-09-30T19:07:53.397Z,1.10
2022-09-30T19:10:21.687Z,0.90
2022-09-30T19:12:49.837Z,0.95
2022-09-30T19:15:20.020Z,0.80
2022-09-30T19:17:50.655Z,1.13
2022-09-30T19:20:19.048Z,1.43
2022-09-30T19:22:48.107Z,1.45
2022-09-30T19:25:16.437Z,0.98
2022-09-30T19:27:46.429Z,1.23
2022-09-30T19:30:16.185Z,0.93
2022-09-30T19:32:45.702Z,1.00
2022-09-30T19:35:17.190Z,1.60
2022-09-30T19:37:59.307Z,0.90
2022-09-30T19:43:06.931Z,0.85
2022-09-30T19:45:35.307Z,0.80
2022-09-30T19:48:04.981Z,2.05
2022-09-30T19:50:34.199Z,1.05
2022-09-30T19:53:02.348Z,1.67
2022-09-30T19:55:34.587Z,2.20
2022-09-30T19:58:04.387Z,0.70
2022-09-30T20:00:32.595Z,1.27
2022-09-30T20:03:00.761Z,2.05
2022-09-30T20:05:30.283Z,1.30
2022-09-30T20:07:58.450Z,1.98
2022-09-30T20:10:26.646Z,1.67
2022-09-30T20:12:54.862Z,1.80
2022-09-30T20:15:45.947Z,1.45
2022-09-30T20:18:14.434Z,1.40
2022-09-30T20:20:45.625Z,1.42
2022-09-30T20:23:14.640Z,3.28
2022-09-30T20:25:43.410Z,0.98
2022-09-30T20:28:11.689Z,1.10
2022-09-30T20:30:45.551Z,1.23
2022-09-30T20:33:16.393Z,2.40
2022-09-30T20:35:46.248Z,1.60
2022-09-30T20:38:16.609Z,1.00
2022-09-30T20:40:45.389Z,1.20
2022-09-30T20:43:13.829Z,1.50
2022-09-30T20:45:42.057Z,1.00
2022-09-30T20:48:10.270Z,1.25
2022-09-30T20:50:43.449Z,1.20
2022-09-30T20:53:14.680Z,1.00
2022-09-30T20:55:44.775Z,1.65
2022-09-30T20:58:14.179Z,1.20
2022-09-30T21:00:43.902Z,1.20
2022-09-30T21:03:15.103Z,1.23
2022-09-30T21:05:52.042Z,1.25
2022-09-30T21:08:21.665Z,1.20
2022-09-30T21:10:50.003Z,1.00
2022-09-30T21:13:18.394Z,2.00
2022-09-30T21:15:46.653Z,0.88
2022-09-30T21:18:14.861Z,1.33
2022-09-30T21:20:43.141Z,1.17
2022-09-30T21:23:11.314Z,1.40
2022-09-30T21:25:41.726Z,1.00
2022-09-30T21:28:09.972Z,1.17
2022-09-30T21:30:41.870Z,1.90
2022-09-30T21:33:10.025Z,1.30
2022-09-30T21:35:38.244Z,1.10
2022-09-30T21:38:06.432Z,1.65
2022-09-30T21:40:34.632Z,1.23
2022-09-30T21:43:04.186Z,1.02
2022-09-30T21:45:32.440Z,0.98
2022-09-30T21:48:04.976Z,1.83
2022-09-30T21:50:35.642Z,1.35
2022-09-30T21:53:04.601Z,1.40
2022-09-30T21:55:33.474Z,1.30
2022-09-30T21:58:02.993Z,2.00
2022-09-30T22:00:31.181Z,1.50
2022-09-30T22:02:59.422Z,1.30
2022-09-30T22:05:27.643Z,1.48
2022-09-30T22:07:55.819Z,1.10
2022-09-30T22:10:24.006Z,1.50
2022-09-30T22:12:52.197Z,1.67
2022-09-30T22:15:21.732Z,3.20
2022-09-30T22:17:51.927Z,1.50
2022-09-30T22:20:20.636Z,1.70
2022-09-30T22:22:48.828Z,1.63
2022-09-30T22:25:17.367Z,1.58
2022-09-30T22:27:46.163Z,1.40
2022-09-30T22:30:14.445Z,1.50
2022-09-30T22:32:43.959Z,1.83
2022-09-30T22:35:30.502Z,2.28
2022-09-30T22:38:16.927Z,1.50
2022-09-30T22:40:45.369Z,1.55
2022-09-30T22:43:13.527Z,1.50
2022-09-30T22:45:43.973Z,1.70
2022-09-30T22:48:13.562Z,2.75
2022-09-30T22:50:41.745Z,1.42
2022-09-30T22:53:09.910Z,1.50
2022-09-30T22:55:38.132Z,1.98
2022-09-30T22:58:06.307Z,1.48
2022-09-30T23:00:34.526Z,1.73
2022-09-30T23:03:03.633Z,2.90
2022-09-30T23:05:36.580Z,1.50
2022-09-30T23:08:05.074Z,2.60
2022-09-30T23:10:33.558Z,1.30
2022-09-30T23:13:01.989Z,1.73
2022-09-30T23:15:30.452Z,1.50
2022-09-30T23:17:58.914Z,1.60
2022-09-30T23:20:27.415Z,2.13
2022-09-30T23:22:57.227Z,1.58
2022-09-30T23:25:25.788Z,1.50
2022-09-30T23:27:54.282Z,1.83
2022-09-30T23:30:22.810Z,1.50
2022-09-30T23:32:51.334Z,1.52
2022-09-30T23:35:20.016Z,1.40
2022-09-30T23:37:52.887Z,1.40
2022-09-30T23:40:22.716Z,1.87
2022-09-30T23:42:51.289Z,1.40
2022-09-30T23:45:19.807Z,1.60
2022-09-30T23:47:49.300Z,2.05
2022-09-30T23:50:17.912Z,1.30
2022-09-30T23:52:46.379Z,1.42
2022-09-30T23:55:14.947Z,1.73
2022-09-30T23:57:47.460Z,1.45
